LTAY/DNZ METAR and TAF weather

Enter ICAO airport designator
Station Type Date Time Source
LTAY METAR 2021/07/28 18:50 UTC NOAA

LTAY 281850Z 05011KT CAVOK 28/04 Q1016


Station Type Date Time Source
LTAY Decoded METAR 2021/07/28 18:50 UTC NOAA

Cardak, Turkey (LTAY) 37-47N 029-42E
Jul 28, 2021 - 02:50 PM EDT / 2021.07.28 1850 UTC
Wind: from the NE (050 degrees) at 13 MPH (11 KT):0
Visibility: greater than 7 mile(s):0
Temperature: 82 F (28 C)
Dew Point: 39 F (4 C)
Relative Humidity: 21%
Pressure (altimeter): 30.00 in. Hg (1016 hPa)
ob: LTAY 281850Z 05011KT CAVOK 28/04 Q1016
cycle: 19

Station Type Date Time Source
LTAY TAF UTC NOAA

Error!

Example: see airport list